createdAt,value
2018-01-26T00:00:08.145Z,20.17
2018-01-26T00:01:13.892Z,18.30
2018-01-26T00:02:19.650Z,19.02
2018-01-26T00:03:25.390Z,19.40
2018-01-26T00:04:31.166Z,19.00
2018-01-26T00:05:36.926Z,19.95
2018-01-26T00:06:43.446Z,19.02
2018-01-26T00:07:49.466Z,19.65
2018-01-26T00:08:55.255Z,19.00
2018-01-26T00:10:02.536Z,19.42
2018-01-26T00:11:08.271Z,19.70
2018-01-26T00:12:14.784Z,20.05
2018-01-26T00:13:20.537Z,21.98
2018-01-26T00:14:26.291Z,20.55
2018-01-26T00:15:32.066Z,21.35
2018-01-26T00:16:38.572Z,21.02
2018-01-26T00:17:44.308Z,21.27
2018-01-26T00:18:50.043Z,20.50
2018-01-26T00:19:55.797Z,21.55
2018-01-26T00:21:01.570Z,21.37
2018-01-26T00:22:08.082Z,22.50
2018-01-26T00:23:13.832Z,22.20
2018-01-26T00:24:19.661Z,20.88
2018-01-26T00:25:25.530Z,21.67
2018-01-26T00:26:31.454Z,22.90
2018-01-26T00:27:37.272Z,21.00
2018-01-26T00:28:43.508Z,23.42
2018-01-26T00:29:49.358Z,21.98
2018-01-26T00:30:55.871Z,22.90
2018-01-26T00:32:01.664Z,21.58
2018-01-26T00:33:08.179Z,21.70
2018-01-26T00:34:13.930Z,22.70
2018-01-26T00:35:19.686Z,23.15
2018-01-26T00:36:25.436Z,22.13
2018-01-26T00:37:31.189Z,23.17
2018-01-26T00:38:37.705Z,23.70
2018-01-26T00:39:43.466Z,22.58
2018-01-26T00:40:49.214Z,22.87
2018-01-26T00:41:54.967Z,23.27
2018-01-26T00:43:01.508Z,23.42
2018-01-26T00:44:07.279Z,22.90
2018-01-26T00:45:13.794Z,23.15
2018-01-26T00:46:19.548Z,23.90
2018-01-26T00:47:25.304Z,22.33
2018-01-26T00:48:31.066Z,24.00
2018-01-26T00:49:37.588Z,23.80
2018-01-26T00:50:43.350Z,23.83
2018-01-26T00:51:49.871Z,22.83
2018-01-26T00:52:55.615Z,23.40
2018-01-26T00:54:01.428Z,24.12
2018-01-26T00:55:07.170Z,24.00
2018-01-26T00:56:12.904Z,22.92
2018-01-26T00:57:18.645Z,22.48
2018-01-26T00:58:24.414Z,24.30
2018-01-26T00:59:30.190Z,24.77
2018-01-26T01:00:35.618Z,22.50
2018-01-26T01:01:41.354Z,25.10
2018-01-26T01:02:47.088Z,23.62
2018-01-26T01:03:52.858Z,23.73
2018-01-26T01:04:59.065Z,24.27
2018-01-26T01:06:04.819Z,23.23
2018-01-26T01:07:10.565Z,23.23
2018-01-26T01:08:16.302Z,23.17
2018-01-26T01:09:22.331Z,23.12
2018-01-26T01:10:28.112Z,23.12
2018-01-26T01:11:33.850Z,22.42
2018-01-26T01:12:39.585Z,23.70
2018-01-26T01:13:46.865Z,23.67
2018-01-26T01:14:52.596Z,25.73
2018-01-26T01:15:58.399Z,23.48
2018-01-26T01:17:04.156Z,24.70
2018-01-26T01:18:09.902Z,24.15
2018-01-26T01:19:15.639Z,25.23
2018-01-26T01:20:21.380Z,23.87
2018-01-26T01:21:27.136Z,23.35
2018-01-26T01:22:32.899Z,23.40
2018-01-26T01:23:40.156Z,24.70
2018-01-26T01:24:45.915Z,23.02
2018-01-26T01:25:51.649Z,24.08
2018-01-26T01:26:57.416Z,22.23
2018-01-26T01:28:03.172Z,24.10
2018-01-26T01:29:09.682Z,24.08
2018-01-26T01:30:15.432Z,24.58
2018-01-26T01:31:21.179Z,24.75
2018-01-26T01:32:26.939Z,25.23
2018-01-26T01:33:34.194Z,25.15
2018-01-26T01:34:39.937Z,24.65
2018-01-26T01:35:45.681Z,24.70
2018-01-26T01:36:51.441Z,24.00
2018-01-26T01:37:57.228Z,24.17
2018-01-26T01:39:02.978Z,24.15
2018-01-26T01:40:08.737Z,23.58
2018-01-26T01:41:14.475Z,24.65
2018-01-26T01:42:20.235Z,22.67
2018-01-26T01:43:26.777Z,24.10
2018-01-26T01:44:32.517Z,22.35
2018-01-26T01:45:38.266Z,24.42
2018-01-26T01:46:44.024Z,23.00
2018-01-26T01:47:49.759Z,23.62
2018-01-26T01:49:12.390Z,21.90
2018-01-26T01:50:18.160Z,21.10
2018-01-26T01:51:24.667Z,18.77
2018-01-26T01:52:30.484Z,19.23
2018-01-26T01:53:36.993Z,19.48
2018-01-26T01:54:42.762Z,19.83
2018-01-26T01:55:48.486Z,19.75
2018-01-26T01:56:54.228Z,20.35
2018-01-26T01:58:00.055Z,19.58
2018-01-26T01:59:05.787Z,18.75
2018-01-26T02:00:11.597Z,17.90
2018-01-26T02:01:17.329Z,17.98
2018-01-26T02:02:23.860Z,18.37
2018-01-26T02:03:29.587Z,17.25
2018-01-26T02:04:35.328Z,18.10
2018-01-26T02:05:41.110Z,18.00
2018-01-26T02:06:47.627Z,19.23
2018-01-26T02:07:53.391Z,17.12
2018-01-26T02:08:59.180Z,17.80
2018-01-26T02:10:04.926Z,17.05
2018-01-26T02:11:10.698Z,16.87
2018-01-26T02:12:16.420Z,19.10
2018-01-26T02:13:22.179Z,16.05
2018-01-26T02:14:27.946Z,16.70
2018-01-26T02:15:34.461Z,16.98
2018-01-26T02:16:40.239Z,16.50
2018-01-26T02:17:46.796Z,16.80
2018-01-26T02:18:53.327Z,15.40
2018-01-26T02:19:59.088Z,16.73
2018-01-26T02:21:05.731Z,15.48
2018-01-26T02:22:12.047Z,16.27
2018-01-26T02:23:17.802Z,16.42
2018-01-26T02:24:23.548Z,14.87
2018-01-26T02:25:29.304Z,15.75
2018-01-26T02:26:35.051Z,14.13
2018-01-26T02:27:40.827Z,14.95
2018-01-26T02:28:46.574Z,13.85
2018-01-26T02:29:53.078Z,12.82
2018-01-26T02:30:58.812Z,12.75
2018-01-26T02:32:04.334Z,14.27
2018-01-26T02:33:10.124Z,13.23
2018-01-26T02:34:15.856Z,13.32
2018-01-26T02:35:21.609Z,13.93
2018-01-26T02:36:27.368Z,13.48
2018-01-26T02:37:33.887Z,13.55
2018-01-26T02:38:39.649Z,13.20
2018-01-26T02:39:45.394Z,12.13
2018-01-26T02:40:51.151Z,13.18
2018-01-26T02:41:56.885Z,12.27
2018-01-26T02:43:02.640Z,12.15
2018-01-26T02:44:09.185Z,11.98
2018-01-26T02:45:14.944Z,12.07
2018-01-26T02:46:21.471Z,13.57
2018-01-26T02:47:27.484Z,11.93
2018-01-26T02:48:33.241Z,11.40
2018-01-26T02:49:39.036Z,12.25
2018-01-26T02:50:45.551Z,10.48
2018-01-26T02:51:51.283Z,12.32
2018-01-26T02:52:57.044Z,12.40
2018-01-26T02:54:02.791Z,11.80
2018-01-26T02:55:08.571Z,12.50
2018-01-26T02:56:14.330Z,11.27
2018-01-26T02:57:20.083Z,11.25
2018-01-26T02:58:25.906Z,11.12
2018-01-26T02:59:31.663Z,11.70
2018-01-26T03:00:37.446Z,11.75
2018-01-26T03:01:43.986Z,11.70
2018-01-26T03:02:49.729Z,11.25
2018-01-26T03:03:55.516Z,10.90
2018-01-26T03:05:02.038Z,11.43
2018-01-26T03:06:07.819Z,11.12
2018-01-26T03:07:14.324Z,11.48
2018-01-26T03:08:20.066Z,11.02
2018-01-26T03:09:25.804Z,10.45
2018-01-26T03:10:31.535Z,11.00
2018-01-26T03:11:37.308Z,11.12
2018-01-26T03:12:44.611Z,10.80
2018-01-26T03:13:51.114Z,10.90
2018-01-26T03:14:56.855Z,10.60
2018-01-26T03:16:02.618Z,10.50
2018-01-26T03:17:08.383Z,10.85
2018-01-26T03:18:14.141Z,10.88
2018-01-26T03:19:20.662Z,10.18
2018-01-26T03:20:26.397Z,9.95
2018-01-26T03:21:32.143Z,9.55
2018-01-26T03:22:38.278Z,10.82
2018-01-26T03:23:44.080Z,9.82
2018-01-26T03:24:49.818Z,10.20
2018-01-26T03:25:56.313Z,9.85
2018-01-26T03:27:02.073Z,10.73
2018-01-26T03:28:07.826Z,9.32
2018-01-26T03:29:13.549Z,9.70
2018-01-26T03:30:19.271Z,9.80
2018-01-26T03:31:25.108Z,9.95
2018-01-26T03:32:30.846Z,9.88
2018-01-26T03:33:36.439Z,9.63
2018-01-26T03:34:42.188Z,9.73
2018-01-26T03:35:47.912Z,9.30
2018-01-26T03:36:53.651Z,9.90
2018-01-26T03:37:59.388Z,9.35
2018-01-26T03:39:04.385Z,9.40
2018-01-26T03:40:10.134Z,10.10
2018-01-26T03:41:15.864Z,9.05
2018-01-26T03:42:21.694Z,8.80
2018-01-26T03:43:28.198Z,9.80
2018-01-26T03:44:33.956Z,9.20
2018-01-26T03:45:39.716Z,8.80
2018-01-26T03:46:46.235Z,10.18
2018-01-26T03:47:51.965Z,9.23
2018-01-26T03:48:57.706Z,9.57
2018-01-26T03:50:03.489Z,9.45
2018-01-26T03:51:10.005Z,9.38
2018-01-26T03:52:15.843Z,9.25
2018-01-26T03:53:21.603Z,9.90
2018-01-26T03:54:27.339Z,9.27
2018-01-26T03:55:33.095Z,8.75
2018-01-26T03:56:38.843Z,8.93
2018-01-26T03:57:44.594Z,9.27
2018-01-26T03:58:50.328Z,9.70
2018-01-26T03:59:56.083Z,10.27
2018-01-26T04:01:02.627Z,10.00
2018-01-26T04:02:08.378Z,9.25
2018-01-26T04:03:14.109Z,9.77
2018-01-26T04:04:19.844Z,8.50
2018-01-26T04:05:25.617Z,8.80
2018-01-26T04:06:32.139Z,9.93
2018-01-26T04:07:37.887Z,9.05
2018-01-26T04:08:43.627Z,9.50
2018-01-26T04:09:49.422Z,9.73
2018-01-26T04:10:54.995Z,9.23
2018-01-26T04:12:00.789Z,9.20
2018-01-26T04:13:07.293Z,9.40
2018-01-26T04:14:13.056Z,9.00
2018-01-26T04:15:19.568Z,9.73
2018-01-26T04:16:25.292Z,9.68
2018-01-26T04:17:31.077Z,10.63
2018-01-26T04:18:36.816Z,8.85
2018-01-26T04:19:42.629Z,9.70
2018-01-26T04:20:48.373Z,9.50
2018-01-26T04:21:54.122Z,9.65
2018-01-26T04:22:59.900Z,9.60
2018-01-26T04:24:05.692Z,9.60
2018-01-26T04:25:11.447Z,9.13
2018-01-26T04:26:17.279Z,9.65
2018-01-26T04:27:23.790Z,8.48
2018-01-26T04:28:29.576Z,8.95
2018-01-26T04:29:35.893Z,9.15
2018-01-26T04:30:41.620Z,9.85
2018-01-26T04:31:47.369Z,10.55
2018-01-26T04:32:53.134Z,10.75
2018-01-26T04:33:59.691Z,10.45
2018-01-26T04:35:06.222Z,11.30
2018-01-26T04:36:11.964Z,12.65
2018-01-26T04:37:17.747Z,13.15
2018-01-26T04:38:24.254Z,13.27
2018-01-26T04:39:30.064Z,14.38
2018-01-26T04:40:35.825Z,15.00
2018-01-26T04:41:41.590Z,15.45
2018-01-26T04:42:47.341Z,16.55
2018-01-26T04:43:53.081Z,16.17
2018-01-26T04:44:58.854Z,17.10
2018-01-26T04:46:05.442Z,17.52
2018-01-26T04:47:11.208Z,17.95
2018-01-26T04:48:16.977Z,17.02
2018-01-26T04:49:22.730Z,19.42
2018-01-26T04:50:29.277Z,21.37
2018-01-26T04:51:35.034Z,20.52
2018-01-26T04:52:40.772Z,20.88
2018-01-26T04:53:46.509Z,20.90
2018-01-26T04:54:53.025Z,21.23
2018-01-26T04:55:58.790Z,24.42
2018-01-26T04:57:04.555Z,22.02
2018-01-26T04:58:10.310Z,20.25
2018-01-26T04:59:16.832Z,20.95
2018-01-26T05:00:22.604Z,21.00
2018-01-26T05:01:29.146Z,20.40
2018-01-26T05:02:36.399Z,20.95
2018-01-26T05:03:42.154Z,19.42
2018-01-26T05:04:47.912Z,19.65
2018-01-26T05:05:53.667Z,19.42
2018-01-26T05:07:00.208Z,19.65
2018-01-26T05:08:05.978Z,20.50
2018-01-26T05:09:11.725Z,20.65
2018-01-26T05:10:17.485Z,18.55
2018-01-26T05:11:23.255Z,17.27
2018-01-26T05:12:29.028Z,18.45
2018-01-26T05:13:34.775Z,16.95
2018-01-26T05:14:41.281Z,18.12
2018-01-26T05:15:47.088Z,19.60
2018-01-26T05:16:52.832Z,19.15
2018-01-26T05:17:59.383Z,16.75
2018-01-26T05:19:05.884Z,16.75
2018-01-26T05:20:11.641Z,18.52
2018-01-26T05:21:17.385Z,16.65
2018-01-26T05:22:23.138Z,15.82
2018-01-26T05:23:28.908Z,14.60
2018-01-26T05:24:35.419Z,13.62
2018-01-26T05:25:41.184Z,14.75
2018-01-26T05:26:46.947Z,14.10
2018-01-26T05:27:54.198Z,12.43
2018-01-26T05:29:00.053Z,12.82
2018-01-26T05:30:05.970Z,11.85
2018-01-26T05:31:11.711Z,12.02
2018-01-26T05:32:17.468Z,9.57
2018-01-26T05:33:23.237Z,11.38
2018-01-26T05:34:29.795Z,10.23
2018-01-26T05:35:36.319Z,10.07
2018-01-26T05:36:42.083Z,9.88
2018-01-26T05:37:48.616Z,10.27
2018-01-26T05:38:54.372Z,9.90
2018-01-26T05:40:00.149Z,9.63
2018-01-26T05:41:06.456Z,9.13
2018-01-26T05:42:12.207Z,8.40
2018-01-26T05:43:17.947Z,8.75
2018-01-26T05:44:23.710Z,9.43
2018-01-26T05:45:29.457Z,9.18
2018-01-26T05:46:35.975Z,8.05
2018-01-26T05:47:41.701Z,8.90
2018-01-26T05:48:47.436Z,8.40
2018-01-26T05:49:53.985Z,8.10
2018-01-26T05:50:59.914Z,8.15
2018-01-26T05:52:06.430Z,8.13
2018-01-26T05:53:12.173Z,8.35
2018-01-26T05:54:17.900Z,8.48
2018-01-26T05:55:23.654Z,8.05
2018-01-26T05:56:29.409Z,7.20
2018-01-26T05:57:35.154Z,8.55
2018-01-26T05:58:40.909Z,7.53
2018-01-26T05:59:47.404Z,8.05
2018-01-26T06:00:53.163Z,7.70
2018-01-26T06:01:58.929Z,7.78
2018-01-26T06:03:04.676Z,7.60
2018-01-26T06:04:10.403Z,7.97
2018-01-26T06:05:16.138Z,7.43
2018-01-26T06:06:21.883Z,7.60
2018-01-26T06:07:27.643Z,7.57
2018-01-26T06:08:34.137Z,7.85
2018-01-26T06:09:39.893Z,7.25
2018-01-26T06:10:45.685Z,8.43
2018-01-26T06:11:51.471Z,6.60
2018-01-26T06:12:57.232Z,7.87
2018-01-26T06:14:03.010Z,8.15
2018-01-26T06:15:10.341Z,7.10
2018-01-26T06:16:16.083Z,6.78
2018-01-26T06:17:21.660Z,6.70
2018-01-26T06:18:27.438Z,7.80
2018-01-26T06:19:34.082Z,8.30
2018-01-26T06:20:39.828Z,8.20
2018-01-26T06:21:45.391Z,8.93
2018-01-26T06:22:51.199Z,8.98
2018-01-26T06:23:56.956Z,8.13
2018-01-26T06:25:03.290Z,7.47
2018-01-26T06:26:08.860Z,9.27
2018-01-26T06:27:14.426Z,9.38
2018-01-26T06:28:20.007Z,9.55
2018-01-26T06:29:25.613Z,8.77
2018-01-26T06:30:31.261Z,11.43
2018-01-26T06:31:37.002Z,11.50
2018-01-26T06:32:42.745Z,11.07
2018-01-26T06:33:48.511Z,11.15
2018-01-26T06:34:55.070Z,10.98
2018-01-26T06:36:01.577Z,10.77
2018-01-26T06:37:07.335Z,11.95
2018-01-26T06:38:13.086Z,11.55
2018-01-26T06:39:18.864Z,12.73
2018-01-26T06:40:25.388Z,11.40
2018-01-26T06:41:31.143Z,13.10
2018-01-26T06:42:36.876Z,15.60
2018-01-26T06:43:42.736Z,13.25
2018-01-26T06:44:48.490Z,13.90
2018-01-26T06:45:55.330Z,14.63
2018-01-26T06:47:01.516Z,14.23
2018-01-26T06:48:08.136Z,16.27
2018-01-26T06:49:14.678Z,15.75
2018-01-26T06:50:20.577Z,15.93
2018-01-26T06:51:27.419Z,16.77
2018-01-26T06:52:33.217Z,14.95
2018-01-26T06:53:39.006Z,14.20
2018-01-26T06:54:45.517Z,15.63
2018-01-26T06:55:51.289Z,15.15
2018-01-26T06:56:57.056Z,16.60
2018-01-26T06:58:03.220Z,16.30
2018-01-26T06:59:09.801Z,16.20
2018-01-26T07:00:16.422Z,15.00
2018-01-26T07:01:22.595Z,15.65
2018-01-26T07:02:29.967Z,16.70
2018-01-26T07:03:37.296Z,15.15
2018-01-26T07:04:43.997Z,15.00
2018-01-26T07:05:51.242Z,15.85
2018-01-26T07:06:57.005Z,16.00
2018-01-26T07:08:03.143Z,15.18
2018-01-26T07:09:09.711Z,16.20
2018-01-26T07:10:15.747Z,15.25
2018-01-26T07:11:21.814Z,15.13
2018-01-26T07:12:27.908Z,15.50
2018-01-26T07:13:33.916Z,14.00
2018-01-26T07:14:39.961Z,14.57
2018-01-26T07:15:46.781Z,15.13
2018-01-26T07:16:52.381Z,13.43
2018-01-26T07:17:58.156Z,14.98
2018-01-26T07:19:04.005Z,13.55
2018-01-26T07:20:09.597Z,13.07
2018-01-26T07:21:16.190Z,12.37
2018-01-26T07:22:22.148Z,11.85
2018-01-26T07:23:28.196Z,12.80
2018-01-26T07:24:33.997Z,11.98
2018-01-26T07:25:40.520Z,11.00
2018-01-26T07:26:47.332Z,11.07
2018-01-26T07:27:54.146Z,10.98
2018-01-26T07:28:59.994Z,11.35
2018-01-26T07:30:05.787Z,11.65
2018-01-26T07:31:12.339Z,11.18
2018-01-26T07:32:18.866Z,11.57
2018-01-26T07:33:25.121Z,11.40
2018-01-26T07:34:30.921Z,9.80
2018-01-26T07:35:37.370Z,11.15
2018-01-26T07:36:43.180Z,10.80
2018-01-26T07:37:49.306Z,10.40
2018-01-26T07:38:55.105Z,10.20
2018-01-26T07:40:00.868Z,10.45
2018-01-26T07:41:07.054Z,10.10
2018-01-26T07:42:12.849Z,11.00
2018-01-26T07:43:18.674Z,10.32
2018-01-26T07:44:25.356Z,10.57
2018-01-26T07:45:31.260Z,9.75
2018-01-26T07:46:37.122Z,8.02
2018-01-26T07:47:43.642Z,8.73
2018-01-26T07:48:49.364Z,8.85
2018-01-26T07:49:54.983Z,8.40
2018-01-26T07:51:00.733Z,8.57
2018-01-26T07:52:06.570Z,8.27
2018-01-26T07:53:12.389Z,8.05
2018-01-26T07:54:18.161Z,8.70
2018-01-26T07:55:23.937Z,7.47
2018-01-26T07:56:29.804Z,7.60
2018-01-26T07:57:35.592Z,8.15
2018-01-26T07:58:41.510Z,10.73
2018-01-26T07:59:48.086Z,9.23
2018-01-26T08:00:54.032Z,6.65
2018-01-26T08:02:00.855Z,11.75
2018-01-26T08:03:07.723Z,9.65
2018-01-26T08:04:16.810Z,10.18
2018-01-26T08:05:22.425Z,6.60
2018-01-26T08:06:28.019Z,10.02
2018-01-26T08:07:33.917Z,7.12
2018-01-26T08:08:39.531Z,7.30
2018-01-26T08:09:45.955Z,7.93
2018-01-26T08:10:51.846Z,5.55
2018-01-26T08:11:57.637Z,5.10
2018-01-26T08:13:03.971Z,4.93
2018-01-26T08:14:10.537Z,5.35
2018-01-26T08:15:16.475Z,5.78
2018-01-26T08:16:22.189Z,4.80
2018-01-26T08:17:28.736Z,5.78
2018-01-26T08:18:35.142Z,5.60
2018-01-26T08:19:41.071Z,6.15
2018-01-26T08:20:46.801Z,8.05
2018-01-26T08:21:52.566Z,4.80
2018-01-26T08:22:58.333Z,5.80
2018-01-26T08:24:04.821Z,4.95
2018-01-26T08:25:10.559Z,5.80
2018-01-26T08:26:16.433Z,5.70
2018-01-26T08:27:22.332Z,4.95
2018-01-26T08:28:28.055Z,5.50
2018-01-26T08:29:34.543Z,4.35
2018-01-26T08:30:40.293Z,5.62
2018-01-26T08:31:46.040Z,5.12
2018-01-26T08:32:51.858Z,4.72
2018-01-26T08:33:57.628Z,5.35
2018-01-26T08:35:03.371Z,4.20
2018-01-26T08:36:09.148Z,4.28
2018-01-26T08:37:15.027Z,9.77
2018-01-26T08:38:20.899Z,5.00
2018-01-26T08:39:26.675Z,4.15
2018-01-26T08:40:33.931Z,3.90
2018-01-26T08:41:39.741Z,3.78
2018-01-26T08:42:46.287Z,4.00
2018-01-26T08:43:52.791Z,6.82
2018-01-26T08:44:58.507Z,6.20
2018-01-26T08:46:04.228Z,6.68
2018-01-26T08:47:11.001Z,5.18
2018-01-26T08:48:16.775Z,3.95
2018-01-26T08:49:22.735Z,5.15
2018-01-26T08:50:28.834Z,5.90
2018-01-26T08:51:35.006Z,5.05
2018-01-26T08:52:40.767Z,5.18
2018-01-26T08:53:46.513Z,5.93
2018-01-26T08:54:52.414Z,5.70
2018-01-26T08:55:57.994Z,5.15
2018-01-26T08:57:04.375Z,6.40
2018-01-26T08:58:10.212Z,6.60
2018-01-26T08:59:15.977Z,4.72
2018-01-26T09:00:22.489Z,5.32
2018-01-26T09:01:28.296Z,6.65
2018-01-26T09:02:34.030Z,6.07
2018-01-26T09:03:40.609Z,6.82
2018-01-26T09:04:46.644Z,5.80
2018-01-26T09:05:53.162Z,7.15
2018-01-26T09:06:59.215Z,7.55
2018-01-26T09:08:05.145Z,7.05
2018-01-26T09:09:10.938Z,7.40
2018-01-26T09:10:17.091Z,5.85
2018-01-26T09:11:22.851Z,5.75
2018-01-26T09:12:28.627Z,5.53
2018-01-26T09:13:34.372Z,6.70
2018-01-26T09:14:40.332Z,6.28
2018-01-26T09:15:46.841Z,7.72
2018-01-26T09:16:52.613Z,6.20
2018-01-26T09:17:58.459Z,6.90
2018-01-26T09:19:04.787Z,7.10
2018-01-26T09:20:10.604Z,6.62
2018-01-26T09:21:16.549Z,6.53
2018-01-26T09:22:22.356Z,6.80
2018-01-26T09:23:28.114Z,6.60
2018-01-26T09:24:33.881Z,6.65
2018-01-26T09:25:39.831Z,6.20
2018-01-26T09:26:46.247Z,7.20
2018-01-26T09:27:53.551Z,7.12
2018-01-26T09:29:00.224Z,6.60
2018-01-26T09:30:06.090Z,6.90
2018-01-26T09:31:12.006Z,5.85
2018-01-26T09:32:18.083Z,6.10
2018-01-26T09:33:23.906Z,6.75
2018-01-26T09:34:29.825Z,5.70
2018-01-26T09:35:36.364Z,6.10
2018-01-26T09:36:42.211Z,5.80
2018-01-26T09:37:48.916Z,6.87
2018-01-26T09:38:54.869Z,6.37
2018-01-26T09:40:00.814Z,7.50
2018-01-26T09:41:06.572Z,6.25
2018-01-26T09:42:13.123Z,5.40
2018-01-26T09:43:19.003Z,6.15
2018-01-26T09:44:25.570Z,5.30
2018-01-26T09:45:31.544Z,6.05
2018-01-26T09:46:38.070Z,5.57
2018-01-26T09:47:43.943Z,5.93
2018-01-26T09:48:50.324Z,6.10
2018-01-26T09:49:56.090Z,5.60
2018-01-26T09:51:01.825Z,7.05
2018-01-26T09:52:07.747Z,5.90
2018-01-26T09:53:13.700Z,5.65
2018-01-26T09:54:19.600Z,6.28
2018-01-26T09:55:25.364Z,7.78
2018-01-26T09:56:32.575Z,5.72
2018-01-26T09:57:38.304Z,6.00
2018-01-26T09:58:44.107Z,6.95
2018-01-26T09:59:49.832Z,6.72
2018-01-26T10:00:55.619Z,6.43
2018-01-26T10:02:01.091Z,5.85
2018-01-26T10:03:06.819Z,6.60
2018-01-26T10:04:12.578Z,6.28
2018-01-26T10:05:18.691Z,6.40
2018-01-26T10:06:24.440Z,7.15
2018-01-26T10:07:30.191Z,6.93
2018-01-26T10:08:35.807Z,6.15
2018-01-26T10:09:41.604Z,6.90
2018-01-26T10:10:47.367Z,6.90
2018-01-26T10:11:53.903Z,8.10
2018-01-26T10:12:59.651Z,6.57
2018-01-26T10:14:05.376Z,7.00
2018-01-26T10:15:11.150Z,7.97
2018-01-26T10:16:17.668Z,7.00
2018-01-26T10:17:23.132Z,7.72
2018-01-26T10:18:29.693Z,9.10
2018-01-26T10:19:35.604Z,9.40
2018-01-26T10:20:41.364Z,7.65
2018-01-26T10:21:47.105Z,8.25
2018-01-26T10:22:52.909Z,7.90
2018-01-26T10:23:58.458Z,6.75
2018-01-26T10:25:04.215Z,8.85
2018-01-26T10:26:10.010Z,9.38
2018-01-26T10:27:16.700Z,7.87
2018-01-26T10:28:22.531Z,8.05
2018-01-26T10:29:28.498Z,7.72
2018-01-26T10:30:34.319Z,9.65
2018-01-26T10:31:40.120Z,12.98
2018-01-26T10:32:45.964Z,10.98
2018-01-26T10:33:51.795Z,12.90
2018-01-26T10:34:57.622Z,10.02
2018-01-26T10:36:03.361Z,8.25
2018-01-26T10:37:09.168Z,9.77
2018-01-26T10:38:14.988Z,7.80
2018-01-26T10:39:20.841Z,6.10
2018-01-26T10:40:26.700Z,6.53
2018-01-26T10:41:32.647Z,6.35
2018-01-26T10:42:39.202Z,7.70
2018-01-26T10:43:45.801Z,7.70
2018-01-26T10:44:51.549Z,8.55
2018-01-26T10:45:57.328Z,10.68
2018-01-26T10:47:03.860Z,11.48
2018-01-26T10:48:09.619Z,6.68
2018-01-26T10:49:15.367Z,6.25
2018-01-26T10:50:21.243Z,9.02
2018-01-26T10:51:27.094Z,6.97
2018-01-26T10:52:33.054Z,8.15
2018-01-26T10:53:38.605Z,6.72
2018-01-26T10:54:44.372Z,5.90
2018-01-26T10:55:50.145Z,5.72
2018-01-26T10:56:56.686Z,6.30
2018-01-26T10:58:03.199Z,7.53
2018-01-26T10:59:09.252Z,6.72
2018-01-26T11:00:15.048Z,5.25
2018-01-26T11:01:20.824Z,12.10
2018-01-26T11:02:27.385Z,7.35
2018-01-26T11:03:33.138Z,7.80
2018-01-26T11:04:39.076Z,7.45
2018-01-26T11:05:44.901Z,5.82
2018-01-26T11:06:50.706Z,4.85
2018-01-26T11:08:03.549Z,6.05
2018-01-26T11:09:14.425Z,5.75
2018-01-26T11:10:20.422Z,5.50
2018-01-26T11:11:26.966Z,7.18
2018-01-26T11:12:32.690Z,6.00
2018-01-26T11:13:38.436Z,5.93
2018-01-26T11:14:44.191Z,5.20
2018-01-26T11:15:51.717Z,5.47
2018-01-26T11:16:57.501Z,6.07
2018-01-26T11:18:03.239Z,6.25
2018-01-26T11:19:08.993Z,6.15
2018-01-26T11:20:14.641Z,5.25
2018-01-26T11:21:20.409Z,5.95
2018-01-26T11:22:26.263Z,7.78
2018-01-26T11:23:32.383Z,6.03
2018-01-26T11:24:38.909Z,5.78
2018-01-26T11:25:44.722Z,7.60
2018-01-26T11:26:50.662Z,6.30
2018-01-26T11:27:56.509Z,6.43
2018-01-26T11:29:02.251Z,8.38
2018-01-26T11:30:08.073Z,7.55
2018-01-26T11:31:14.572Z,6.10
2018-01-26T11:32:20.324Z,6.22
2018-01-26T11:33:26.371Z,6.35
2018-01-26T11:34:32.149Z,7.85
2018-01-26T11:35:37.876Z,6.12
2018-01-26T11:36:44.848Z,6.85
2018-01-26T11:37:50.651Z,7.97
2018-01-26T11:38:56.737Z,7.15
2018-01-26T11:40:02.478Z,7.55
2018-01-26T11:41:08.384Z,6.87
2018-01-26T11:42:14.217Z,6.03
2018-01-26T11:43:20.488Z,7.32
2018-01-26T11:44:27.408Z,7.47
2018-01-26T11:45:33.254Z,8.18
2018-01-26T11:46:39.040Z,7.40
2018-01-26T11:47:45.071Z,7.93
2018-01-26T11:48:51.228Z,7.95
2018-01-26T11:49:57.056Z,6.53
2018-01-26T11:51:02.828Z,7.85
2018-01-26T11:52:08.624Z,8.00
2018-01-26T11:53:14.822Z,7.15
2018-01-26T11:54:20.625Z,7.80
2018-01-26T11:55:27.145Z,7.85
2018-01-26T11:56:33.166Z,7.93
2018-01-26T11:57:38.919Z,6.97
2018-01-26T11:58:44.645Z,5.90
2018-01-26T11:59:50.489Z,6.05
2018-01-26T12:00:56.389Z,6.65
2018-01-26T12:02:02.118Z,6.87
2018-01-26T12:03:07.899Z,5.93
2018-01-26T12:04:13.895Z,6.05
2018-01-26T12:05:19.900Z,5.97
2018-01-26T12:06:25.629Z,5.80
2018-01-26T12:07:32.143Z,5.85
2018-01-26T12:08:37.917Z,5.87
2018-01-26T12:09:43.840Z,5.60
2018-01-26T12:10:50.410Z,5.85
2018-01-26T12:11:57.014Z,6.03
2018-01-26T12:13:02.772Z,6.25
2018-01-26T12:14:08.340Z,6.70
2018-01-26T12:15:14.145Z,6.37
2018-01-26T12:16:20.016Z,7.53
2018-01-26T12:17:25.775Z,5.95
2018-01-26T12:18:31.519Z,7.57
2018-01-26T12:19:37.079Z,7.28
2018-01-26T12:20:43.612Z,5.40
2018-01-26T12:21:50.016Z,5.28
2018-01-26T12:22:55.754Z,5.20
2018-01-26T12:24:01.529Z,5.03
2018-01-26T12:25:07.272Z,5.70
2018-01-26T12:26:14.601Z,5.95
2018-01-26T12:27:20.658Z,6.80
2018-01-26T12:28:26.940Z,4.55
2018-01-26T12:29:34.368Z,6.20
2018-01-26T12:30:40.737Z,5.57
2018-01-26T12:31:47.294Z,5.80
2018-01-26T12:32:54.927Z,5.50
2018-01-26T12:34:00.493Z,4.78
2018-01-26T12:35:07.041Z,5.10
2018-01-26T12:36:12.443Z,5.10
2018-01-26T12:37:18.175Z,6.70
2018-01-26T12:38:24.665Z,5.68
2018-01-26T12:39:30.465Z,5.03
2018-01-26T12:40:36.390Z,6.18
2018-01-26T12:41:42.887Z,5.05
2018-01-26T12:42:50.479Z,6.20
2018-01-26T12:43:56.455Z,5.43
2018-01-26T12:45:02.414Z,6.25
2018-01-26T12:46:08.183Z,6.03
2018-01-26T12:47:14.061Z,6.05
2018-01-26T12:48:19.964Z,5.35
2018-01-26T12:49:26.112Z,5.90
2018-01-26T12:50:32.910Z,7.12
2018-01-26T12:51:38.776Z,6.45
2018-01-26T12:52:44.578Z,7.10
2018-01-26T12:53:50.415Z,5.93
2018-01-26T12:54:56.435Z,6.32
2018-01-26T12:56:03.360Z,7.12
2018-01-26T12:57:09.293Z,6.55
2018-01-26T12:58:15.048Z,8.55
2018-01-26T12:59:21.130Z,7.57
2018-01-26T13:00:27.788Z,5.72
2018-01-26T13:01:33.578Z,5.37
2018-01-26T13:02:40.372Z,5.62
2018-01-26T13:03:46.220Z,5.03
2018-01-26T13:04:52.654Z,7.12
2018-01-26T13:05:59.405Z,18.73
2018-01-26T13:07:05.224Z,6.12
2018-01-26T13:08:11.408Z,4.50
2018-01-26T13:09:17.439Z,4.80
2018-01-26T13:10:24.175Z,4.65
2018-01-26T13:11:31.275Z,5.07
2018-01-26T13:12:37.639Z,5.20
2018-01-26T13:13:43.831Z,4.35
2018-01-26T13:14:50.091Z,5.45
2018-01-26T13:15:56.405Z,4.87
2018-01-26T13:17:02.137Z,4.97
2018-01-26T13:18:08.596Z,4.65
2018-01-26T13:19:15.072Z,3.92
2018-01-26T13:20:21.199Z,4.20
2018-01-26T13:21:27.107Z,6.20
2018-01-26T13:22:33.751Z,5.75
2018-01-26T13:23:39.861Z,4.53
2018-01-26T13:24:45.806Z,3.90
2018-01-26T13:25:52.368Z,5.47
2018-01-26T13:26:58.305Z,4.72
2018-01-26T13:28:04.230Z,4.75
2018-01-26T13:29:11.064Z,6.12
2018-01-26T13:30:17.210Z,6.15
2018-01-26T13:31:23.306Z,5.78
2018-01-26T13:32:29.973Z,5.80
2018-01-26T13:33:36.784Z,5.62
2018-01-26T13:34:42.826Z,5.53
2018-01-26T13:35:48.832Z,5.60
2018-01-26T13:36:55.775Z,5.78
2018-01-26T13:38:02.745Z,5.82
2018-01-26T13:39:09.658Z,5.90
2018-01-26T13:40:15.631Z,5.12
2018-01-26T13:41:21.640Z,5.45
2018-01-26T13:42:28.340Z,4.62
2018-01-26T13:43:34.295Z,4.12
2018-01-26T13:44:40.315Z,4.70
2018-01-26T13:45:46.241Z,4.25
2018-01-26T13:46:52.608Z,4.95
2018-01-26T13:47:58.591Z,5.00
2018-01-26T13:49:04.615Z,5.37
2018-01-26T13:50:10.679Z,4.55
2018-01-26T13:51:16.596Z,5.37
2018-01-26T13:52:22.531Z,4.20
2018-01-26T13:53:29.843Z,4.62
2018-01-26T13:54:35.680Z,5.25
2018-01-26T13:55:42.269Z,4.75
2018-01-26T13:56:48.037Z,6.10
2018-01-26T13:57:53.645Z,4.70
2018-01-26T13:58:59.190Z,5.57
2018-01-26T14:00:04.590Z,5.65
2018-01-26T14:01:11.135Z,5.35
2018-01-26T14:02:16.905Z,4.87
2018-01-26T14:03:23.835Z,4.90
2018-01-26T14:04:30.498Z,4.87
2018-01-26T14:05:37.043Z,3.97
2018-01-26T14:06:42.968Z,4.60
2018-01-26T14:07:48.716Z,4.45
2018-01-26T14:08:54.472Z,4.37
2018-01-26T14:10:00.235Z,4.90
2018-01-26T14:11:07.668Z,4.15
2018-01-26T14:12:13.673Z,4.78
2018-01-26T14:13:20.933Z,5.30
2018-01-26T14:14:27.814Z,5.28
2018-01-26T14:15:33.629Z,4.12
2018-01-26T14:16:40.036Z,5.43
2018-01-26T14:17:46.141Z,5.05
2018-01-26T14:18:52.041Z,5.35
2018-01-26T14:19:57.976Z,4.72
2018-01-26T14:21:03.948Z,4.95
2018-01-26T14:22:09.730Z,4.90
2018-01-26T14:23:15.994Z,4.90
2018-01-26T14:24:21.801Z,5.15
2018-01-26T14:25:28.502Z,4.62
2018-01-26T14:26:34.580Z,5.55